Time;durP1;ratioP1;P1;durP2;ratioP2;P2;SDS_P1;SDS_P2;PMS_P1;PMS_P2;Temp;Humidity;BMP_temperature;BMP_pressure;BME280_temperature;BME280_humidity;BME280_pressure;Samples;Min_cycle;Max_cycle;Signal;HPM_P1;HPM_P2
2023/07/29 00:02:08;;;;;;;0.10;0.10;;;22.70;73.40;;;;;;4987431;28;20172;-77
2023/07/29 00:04:33;;;;;;;0.20;0.20;;;22.70;73.50;;;;;;5019797;28;20128;-76
2023/07/29 00:06:59;;;;;;;0.15;0.15;;;22.70;73.50;;;;;;5006386;28;20041;-77
2023/07/29 00:09:24;;;;;;;0.10;0.10;;;22.70;74.30;;;;;;5022000;28;20092;-77
2023/07/29 00:11:50;;;;;;;0.10;0.10;;;22.70;73.60;;;;;;5006258;28;20526;-77
2023/07/29 00:14:15;;;;;;;0.10;0.10;;;22.70;73.70;;;;;;5023753;28;20117;-77
2023/07/29 00:16:42;;;;;;;0.20;0.20;;;22.70;73.60;;;;;;5021996;28;20104;-77
2023/07/29 00:19:08;;;;;;;1.75;0.15;;;22.70;73.60;;;;;;5005479;28;20503;-77
2023/07/29 00:21:34;;;;;;;0.10;0.10;;;22.70;73.70;;;;;;5004785;28;20122;-77
2023/07/29 00:24:01;;;;;;;0.20;0.20;;;22.60;73.60;;;;;;5021168;28;20045;-77
2023/07/29 00:26:28;;;;;;;0.10;0.10;;;22.60;73.60;;;;;;5005987;28;20507;-77
2023/07/29 00:28:57;;;;;;;0.10;0.10;;;22.70;73.70;;;;;;5007093;28;20526;-76
2023/07/29 00:31:23;;;;;;;0.20;0.20;;;22.60;73.60;;;;;;5009257;28;20469;-78
2023/07/29 00:33:48;;;;;;;0.35;0.10;;;22.60;73.60;;;;;;5007363;28;20041;-76
2023/07/29 00:36:14;;;;;;;0.20;0.20;;;22.60;73.60;;;;;;5008949;28;20051;-77
2023/07/29 00:38:39;;;;;;;0.20;0.20;;;22.70;73.70;;;;;;5007530;28;20045;-77
2023/07/29 00:41:05;;;;;;;0.20;0.20;;;22.60;73.60;;;;;;5009568;28;20499;-77
2023/07/29 00:43:30;;;;;;;0.10;0.10;;;22.60;73.60;;;;;;4987915;28;20049;-77
2023/07/29 00:45:57;;;;;;;0.05;0.05;;;22.60;73.60;;;;;;5025407;28;20057;-77
2023/07/29 00:48:23;;;;;;;0.10;0.10;;;22.60;73.60;;;;;;5025291;28;20056;-77
2023/07/29 00:50:49;;;;;;;0.20;0.20;;;22.60;73.60;;;;;;5024432;28;20049;-77
2023/07/29 00:53:14;;;;;;;0.10;0.10;;;22.60;73.60;;;;;;5009190;28;20042;-77
2023/07/29 00:55:40;;;;;;;0.10;0.10;;;22.70;73.70;;;;;;4989747;28;20396;-77
2023/07/29 00:58:06;;;;;;;0.10;0.10;;;22.70;73.70;;;;;;4987008;28;20049;-77
2023/07/29 01:00:32;;;;;;;0.10;0.10;;;22.60;73.50;;;;;;5007714;28;20545;-77
2023/07/29 01:02:57;;;;;;;0.20;0.20;;;22.60;73.50;;;;;;4991243;28;20096;-77
2023/07/29 01:05:23;;;;;;;0.00;0.00;;;22.60;73.50;;;;;;5020339;28;20068;-77
2023/07/29 01:07:54;;;;;;;0.08;0.08;;;22.60;73.50;;;;;;4992389;28;20040;-77
2023/07/29 01:10:46;;;;;;;0.00;0.00;;;22.60;73.60;;;;;;5017213;28;20042;-79
2023/07/29 01:13:21;;;;;;;0.10;0.10;;;22.60;73.50;;;;;;5007541;28;20041;-77
2023/07/29 01:15:58;;;;;;;0.10;0.10;;;22.60;73.50;;;;;;5022395;28;20045;-77
2023/07/29 01:18:25;;;;;;;0.20;0.20;;;22.60;73.50;;;;;;5014352;28;20415;-77
2023/07/29 01:20:58;;;;;;;0.10;0.03;;;22.60;73.50;;;;;;5024265;28;20064;-77
2023/07/29 01:23:25;;;;;;;0.10;0.10;;;22.60;73.60;;;;;;5023199;28;20066;-77
2023/07/29 01:25:50;;;;;;;0.10;0.10;;;22.60;73.60;;;;;;5013050;28;20049;-77
2023/07/29 01:28:16;;;;;;;0.10;0.10;;;22.60;73.50;;;;;;4993811;28;20033;-77
2023/07/29 01:30:41;;;;;;;0.52;0.10;;;22.60;73.50;;;;;;5009807;28;20499;-77
2023/07/29 01:33:14;;;;;;;0.10;0.10;;;22.60;73.50;;;;;;5026344;28;20049;-76
2023/07/29 01:36:03;;;;;;;0.10;0.10;;;22.60;73.50;;;;;;5005608;28;20725;-77
2023/07/29 01:38:38;;;;;;;0.05;0.05;;;22.60;73.40;;;;;;5021918;28;20052;-77
2023/07/29 01:41:06;;;;;;;0.10;0.10;;;22.60;73.50;;;;;;5027808;28;20073;-77
2023/07/29 01:43:32;;;;;;;0.10;0.10;;;22.60;73.40;;;;;;5025577;28;20515;-78
2023/07/29 01:45:57;;;;;;;0.10;0.10;;;22.60;73.50;;;;;;5009984;28;20041;-77
2023/07/29 01:48:23;;;;;;;0.20;0.10;;;22.60;73.50;;;;;;5027989;28;20503;-78
2023/07/29 01:50:48;;;;;;;0.03;0.03;;;22.60;73.60;;;;;;5025582;28;20083;-77
2023/07/29 01:53:14;;;;;;;0.00;0.00;;;22.60;73.60;;;;;;5013699;28;20048;-77
2023/07/29 01:55:41;;;;;;;0.00;0.00;;;22.60;73.60;;;;;;5007235;28;20589;-77
2023/07/29 01:58:06;;;;;;;0.52;0.10;;;22.60;73.60;;;;;;5025695;28;20602;-77
2023/07/29 02:00:32;;;;;;;0.10;0.10;;;22.60;73.50;;;;;;4992386;28;20484;-77
2023/07/29 02:02:57;;;;;;;0.43;0.10;;;22.60;73.60;;;;;;4993356;28;20034;-76
2023/07/29 02:05:23;;;;;;;0.10;0.10;;;22.60;73.60;;;;;;5009295;28;20076;-81
2023/07/29 02:07:48;;;;;;;0.10;0.10;;;22.60;73.50;;;;;;5039537;28;20049;-77
2023/07/29 02:10:14;;;;;;;0.10;0.10;;;22.60;73.60;;;;;;5023479;28;20029;-77
2023/07/29 02:12:40;;;;;;;0.08;0.08;;;22.60;73.60;;;;;;5009306;28;20041;-77
2023/07/29 02:15:06;;;;;;;0.00;0.00;;;22.60;73.60;;;;;;5008635;28;20050;-77
2023/07/29 02:17:31;;;;;;;0.17;0.00;;;22.60;73.60;;;;;;5029706;28;20041;-77
2023/07/29 02:19:57;;;;;;;0.20;0.20;;;22.60;73.60;;;;;;5026798;28;20056;-76
2023/07/29 02:22:22;;;;;;;0.00;0.00;;;22.60;73.60;;;;;;5008000;28;20042;-77
2023/07/29 02:24:48;;;;;;;0.05;0.00;;;22.60;73.60;;;;;;5007330;28;20128;-76
2023/07/29 02:27:14;;;;;;;0.10;0.10;;;22.60;73.70;;;;;;5007873;28;20492;-77
2023/07/29 02:29:39;;;;;;;0.20;0.20;;;22.60;73.60;;;;;;5011696;28;20056;-77
2023/07/29 02:32:05;;;;;;;0.03;0.03;;;22.60;73.60;;;;;;5029298;28;20049;-77
2023/07/29 02:34:30;;;;;;;0.10;0.10;;;22.60;73.60;;;;;;5027610;28;20381;-77
2023/07/29 02:36:56;;;;;;;0.10;0.10;;;22.60;73.60;;;;;;5008249;28;20047;-77
2023/07/29 02:39:23;;;;;;;0.17;0.00;;;22.60;73.60;;;;;;4989787;28;20042;-77
2023/07/29 02:41:48;;;;;;;0.10;0.10;;;22.60;73.60;;;;;;5009956;28;20044;-77
2023/07/29 02:44:14;;;;;;;0.30;0.10;;;22.60;73.60;;;;;;5027427;28;20034;-77
2023/07/29 02:46:40;;;;;;;0.10;0.10;;;22.60;73.80;;;;;;5005128;28;20022;-76
2023/07/29 02:49:05;;;;;;;0.10;0.10;;;22.60;73.60;;;;;;5025036;28;20480;-77
2023/07/29 02:51:31;;;;;;;0.10;0.10;;;22.60;73.90;;;;;;5027384;28;20095;-78
2023/07/29 02:53:56;;;;;;;0.10;0.10;;;22.60;73.70;;;;;;5012059;28;20091;-77
2023/07/29 02:56:22;;;;;;;0.22;0.10;;;22.60;73.70;;;;;;5028977;28;20129;-77
2023/07/29 02:58:48;;;;;;;0.03;0.03;;;22.60;73.60;;;;;;5026321;28;20046;-77
2023/07/29 03:01:13;;;;;;;0.10;0.10;;;22.60;73.80;;;;;;5026315;28;20447;-77
2023/07/29 03:03:39;;;;;;;0.00;0.00;;;22.60;73.70;;;;;;5024553;28;20045;-77
2023/07/29 03:06:06;;;;;;;0.10;0.10;;;22.60;73.60;;;;;;5028024;28;20057;-76
2023/07/29 03:08:32;;;;;;;0.10;0.10;;;22.60;73.60;;;;;;5038276;28;20554;-78
2023/07/29 03:10:57;;;;;;;0.10;0.10;;;22.60;73.80;;;;;;5029335;28;20125;-77
2023/07/29 03:13:23;;;;;;;0.88;0.08;;;22.60;73.90;;;;;;5009331;28;20064;-77
2023/07/29 03:15:48;;;;;;;0.00;0.00;;;22.50;74.00;;;;;;5026705;28;20491;-77
2023/07/29 03:18:14;;;;;;;0.00;0.00;;;22.60;73.90;;;;;;4990657;28;20072;-77
2023/07/29 03:20:40;;;;;;;0.10;0.10;;;22.60;74.20;;;;;;5023624;28;20060;-77
2023/07/29 03:23:06;;;;;;;1.20;0.10;;;22.60;74.40;;;;;;5024887;28;20402;-77
2023/07/29 03:25:31;;;;;;;0.00;0.00;;;22.60;74.30;;;;;;5025963;28;20038;-78
2023/07/29 03:27:57;;;;;;;0.20;0.20;;;22.60;74.20;;;;;;4990485;28;20479;-77
2023/07/29 03:30:23;;;;;;;0.08;0.08;;;22.60;74.40;;;;;;5007858;28;20041;-77
2023/07/29 03:32:48;;;;;;;0.10;0.10;;;22.60;74.50;;;;;;5027673;28;20376;-77
2023/07/29 03:35:14;;;;;;;0.10;0.10;;;22.60;74.60;;;;;;5010095;28;20037;-76
2023/07/29 03:37:40;;;;;;;0.10;0.10;;;22.60;74.50;;;;;;5005367;28;20392;-77
2023/07/29 03:40:06;;;;;;;0.10;0.10;;;22.50;74.50;;;;;;5011741;28;20037;-76
2023/07/29 03:42:32;;;;;;;0.10;0.10;;;22.50;74.50;;;;;;5039645;28;20034;-77
2023/07/29 03:44:58;;;;;;;0.10;0.10;;;22.50;74.70;;;;;;5006823;28;20041;-77
2023/07/29 03:47:23;;;;;;;0.10;0.10;;;22.50;74.80;;;;;;5021010;28;20042;-77
2023/07/29 03:49:49;;;;;;;0.10;0.10;;;22.50;74.50;;;;;;5026624;28;20488;-77
2023/07/29 03:52:15;;;;;;;0.10;0.10;;;22.50;74.50;;;;;;5019635;28;20048;-76
2023/07/29 03:54:40;;;;;;;0.10;0.10;;;22.50;74.50;;;;;;5007526;28;20043;-77
2023/07/29 03:57:06;;;;;;;0.00;0.00;;;22.50;74.50;;;;;;5006406;28;20049;-76
2023/07/29 03:59:32;;;;;;;0.20;0.20;;;22.50;74.60;;;;;;5009142;28;20063;-77
2023/07/29 04:01:57;;;;;;;0.10;0.10;;;22.50;74.80;;;;;;5038047;28;20491;-77
2023/07/29 04:04:23;;;;;;;0.00;0.00;;;22.50;74.80;;;;;;5024370;28;20049;-76
2023/07/29 04:06:48;;;;;;;0.10;0.10;;;22.50;74.50;;;;;;5023298;28;20518;-76
2023/07/29 04:09:14;;;;;;;0.10;0.10;;;22.50;74.40;;;;;;5007679;28;20049;-76
2023/07/29 04:11:39;;;;;;;0.10;0.10;;;22.50;74.30;;;;;;4991449;28;20046;-77
2023/07/29 04:14:05;;;;;;;0.10;0.10;;;22.50;74.00;;;;;;5005856;28;20076;-76
2023/07/29 04:16:30;;;;;;;0.00;0.00;;;22.50;74.00;;;;;;4990589;28;20464;-78
2023/07/29 04:18:56;;;;;;;0.10;0.10;;;22.50;74.40;;;;;;5008231;28;20054;-76
2023/07/29 04:21:22;;;;;;;1.75;0.20;;;22.50;74.30;;;;;;5006374;28;20507;-76
2023/07/29 04:23:47;;;;;;;0.10;0.10;;;22.50;74.40;;;;;;5024750;28;20077;-77
2023/07/29 04:26:13;;;;;;;0.10;0.10;;;22.50;74.30;;;;;;5025361;28;20096;-76
2023/07/29 04:28:38;;;;;;;0.10;0.10;;;22.50;74.30;;;;;;5032868;28;20432;-76
2023/07/29 04:31:04;;;;;;;0.10;0.10;;;22.50;74.40;;;;;;5023762;28;20064;-76
2023/07/29 04:33:30;;;;;;;0.17;0.17;;;22.50;74.50;;;;;;5020665;28;20107;-76
2023/07/29 04:35:56;;;;;;;0.20;0.20;;;22.50;74.80;;;;;;5007106;28;20045;-77
2023/07/29 04:38:21;;;;;;;0.20;0.20;;;22.50;74.80;;;;;;5025911;28;20122;-76
2023/07/29 04:40:49;;;;;;;0.17;0.17;;;22.50;74.70;;;;;;5023319;28;20049;-77
2023/07/29 04:43:14;;;;;;;0.22;0.00;;;22.50;74.70;;;;;;5006956;28;20049;-76
2023/07/29 04:45:43;;;;;;;0.10;0.10;;;22.50;74.60;;;;;;5020825;28;20541;-77
2023/07/29 04:48:09;;;;;;;0.10;0.10;;;22.50;74.50;;;;;;5006647;28;20092;-77
2023/07/29 04:50:34;;;;;;;0.15;0.15;;;22.50;74.60;;;;;;5008049;28;20041;-77
2023/07/29 04:53:00;;;;;;;0.10;0.10;;;22.50;74.80;;;;;;5024112;28;20050;-76
2023/07/29 04:55:26;;;;;;;0.20;0.20;;;22.50;74.60;;;;;;5009884;28;20035;-76
2023/07/29 04:57:51;;;;;;;0.05;0.05;;;22.50;74.90;;;;;;4991553;28;20057;-76
2023/07/29 05:00:17;;;;;;;0.25;0.20;;;22.50;74.80;;;;;;5027799;28;20038;-76
2023/07/29 05:02:43;;;;;;;0.10;0.10;;;22.50;74.70;;;;;;5008565;28;20082;-76
2023/07/29 05:05:08;;;;;;;0.10;0.10;;;22.50;74.70;;;;;;5010543;28;20172;-76
2023/07/29 05:07:34;;;;;;;0.20;0.10;;;22.50;75.40;;;;;;5008969;28;20148;-78
2023/07/29 05:09:59;;;;;;;0.10;0.10;;;22.50;74.60;;;;;;5027752;28;20064;-77
2023/07/29 05:12:25;;;;;;;0.10;0.10;;;22.50;74.70;;;;;;5027572;28;20045;-76
2023/07/29 05:14:51;;;;;;;0.00;0.00;;;22.50;74.60;;;;;;5026341;28;20062;-77
2023/07/29 05:17:16;;;;;;;1.27;0.10;;;22.50;74.60;;;;;;5012706;28;20411;-76
2023/07/29 05:19:42;;;;;;;0.10;0.10;;;22.50;74.60;;;;;;5012676;28;20054;-77
2023/07/29 05:22:07;;;;;;;0.20;0.20;;;22.50;74.50;;;;;;5027468;28;20060;-77
2023/07/29 05:24:33;;;;;;;0.10;0.10;;;22.50;74.60;;;;;;5012181;28;20037;-77
2023/07/29 05:26:58;;;;;;;0.10;0.10;;;22.50;74.70;;;;;;5009945;28;20037;-77
2023/07/29 05:29:24;;;;;;;0.10;0.10;;;22.50;74.70;;;;;;5011179;28;20053;-77
2023/07/29 05:31:50;;;;;;;0.10;0.10;;;22.50;74.70;;;;;;5023451;28;20099;-76
2023/07/29 05:34:15;;;;;;;0.10;0.10;;;22.50;74.70;;;;;;5025939;28;20041;-76
2023/07/29 05:36:41;;;;;;;0.10;0.10;;;22.50;74.70;;;;;;5026129;28;20110;-78
2023/07/29 05:39:07;;;;;;;0.20;0.20;;;22.50;74.70;;;;;;5009441;28;20120;-77
2023/07/29 05:41:32;;;;;;;0.10;0.10;;;22.50;74.70;;;;;;5012084;28;20041;-77
2023/07/29 05:43:58;;;;;;;0.10;0.10;;;22.50;74.60;;;;;;5028943;28;20122;-77
2023/07/29 05:46:24;;;;;;;0.10;0.10;;;22.50;74.60;;;;;;5024773;28;20103;-77
2023/07/29 05:48:49;;;;;;;0.20;0.20;;;22.50;74.50;;;;;;5022960;28;20037;-77
2023/07/29 05:51:15;;;;;;;0.13;0.13;;;22.50;74.40;;;;;;5007928;28;20053;-77
2023/07/29 05:53:40;;;;;;;0.20;0.20;;;22.50;74.50;;;;;;5029633;28;20497;-76
2023/07/29 05:56:06;;;;;;;0.25;0.25;;;22.50;74.70;;;;;;5027996;28;20192;-77
2023/07/29 05:58:31;;;;;;;0.25;0.25;;;22.50;74.70;;;;;;5025732;28;20033;-77
2023/07/29 06:00:57;;;;;;;0.20;0.20;;;22.50;74.70;;;;;;5010448;28;20504;-77
2023/07/29 06:03:23;;;;;;;0.15;0.13;;;22.50;74.70;;;;;;5026160;28;20483;-77
2023/07/29 06:05:49;;;;;;;0.00;0.00;;;22.50;74.80;;;;;;4994836;28;20049;-77
2023/07/29 06:08:14;;;;;;;1.75;0.10;;;22.50;74.70;;;;;;5024856;28;20061;-77
2023/07/29 06:10:40;;;;;;;0.08;0.08;;;22.50;74.50;;;;;;4996561;28;20455;-77
2023/07/29 06:13:06;;;;;;;0.10;0.10;;;22.50;74.60;;;;;;4992630;28;20033;-77
2023/07/29 06:15:31;;;;;;;0.10;0.10;;;22.50;74.50;;;;;;4991572;28;20485;-77
2023/07/29 06:17:57;;;;;;;0.10;0.10;;;22.50;74.50;;;;;;5025606;28;20575;-77
2023/07/29 06:20:22;;;;;;;0.10;0.08;;;22.50;74.60;;;;;;5011517;28;20048;-77
2023/07/29 06:22:48;;;;;;;0.00;0.00;;;22.50;74.60;;;;;;5025627;28;20045;-77
2023/07/29 06:25:13;;;;;;;0.10;0.10;;;22.50;74.50;;;;;;4990228;28;20137;-76
2023/07/29 06:27:39;;;;;;;0.10;0.10;;;22.50;74.50;;;;;;5024622;28;20029;-77
2023/07/29 06:30:05;;;;;;;0.10;0.10;;;22.50;74.60;;;;;;5010117;28;20495;-77
2023/07/29 06:32:31;;;;;;;0.35;0.35;;;22.50;74.70;;;;;;5026506;28;20045;-77
2023/07/29 06:34:57;;;;;;;0.22;0.10;;;22.50;75.40;;;;;;5026604;28;20046;-76
2023/07/29 06:37:22;;;;;;;0.10;0.10;;;22.50;74.70;;;;;;5010306;28;20056;-77
2023/07/29 06:39:48;;;;;;;0.10;0.10;;;22.50;74.50;;;;;;5024288;28;20083;-77
2023/07/29 06:42:13;;;;;;;0.10;0.10;;;22.50;74.50;;;;;;5004954;28;20415;-77
2023/07/29 06:44:40;;;;;;;0.03;0.03;;;22.50;74.60;;;;;;5024697;28;20049;-78
2023/07/29 06:47:05;;;;;;;0.10;0.10;;;22.50;74.60;;;;;;5027730;28;20064;-77
2023/07/29 06:49:31;;;;;;;0.10;0.10;;;22.50;74.50;;;;;;5026028;28;20076;-77
2023/07/29 06:51:56;;;;;;;0.10;0.10;;;22.50;75.30;;;;;;5024548;28;20076;-77
2023/07/29 06:54:28;;;;;;;0.15;0.10;;;22.50;74.50;;;;;;5027130;28;20400;-76
2023/07/29 06:56:53;;;;;;;0.10;0.10;;;22.50;74.50;;;;;;5021987;28;20552;-77
2023/07/29 06:59:19;;;;;;;0.00;0.00;;;22.50;74.40;;;;;;5026850;28;20030;-77
2023/07/29 07:01:44;;;;;;;0.10;0.10;;;22.50;74.50;;;;;;5026080;28;20061;-77
2023/07/29 07:04:10;;;;;;;0.08;0.08;;;22.50;74.50;;;;;;5021893;28;20045;-77
2023/07/29 07:06:35;;;;;;;0.08;0.08;;;22.50;74.50;;;;;;5028202;28;20033;-77
2023/07/29 07:09:01;;;;;;;0.15;0.15;;;22.50;74.40;;;;;;5024208;28;20381;-77
2023/07/29 07:11:26;;;;;;;0.17;0.10;;;22.50;74.40;;;;;;5006806;28;20124;-77
2023/07/29 07:13:52;;;;;;;0.10;0.10;;;22.60;74.00;;;;;;5041370;28;20038;-77
2023/07/29 07:16:18;;;;;;;0.47;0.10;;;22.60;74.00;;;;;;5005479;28;20049;-77
2023/07/29 07:18:43;;;;;;;0.10;0.10;;;22.60;74.20;;;;;;5022879;28;21128;-78
2023/07/29 07:21:09;;;;;;;0.10;0.10;;;22.60;74.00;;;;;;5023197;28;20053;-77
2023/07/29 07:23:35;;;;;;;0.10;0.10;;;22.60;74.70;;;;;;5022881;28;20053;-77
2023/07/29 07:26:00;;;;;;;0.10;0.10;;;22.60;74.00;;;;;;5054791;28;20534;-76
2023/07/29 07:28:26;;;;;;;0.10;0.10;;;22.60;74.90;;;;;;5008662;28;20043;-76
2023/07/29 07:30:51;;;;;;;0.10;0.10;;;22.60;74.20;;;;;;5006119;28;20042;-76
2023/07/29 07:33:17;;;;;;;0.35;0.20;;;22.60;74.30;;;;;;4677241;28;10000874;-76
2023/07/29 07:35:42;;;;;;;0.20;0.20;;;22.60;74.40;;;;;;5020618;28;20045;-75
2023/07/29 07:38:09;;;;;;;0.40;0.40;;;22.50;75.10;;;;;;5020877;28;20411;-75
2023/07/29 07:40:35;;;;;;;0.30;0.30;;;22.40;75.30;;;;;;5021659;28;20053;-75
2023/07/29 07:43:01;;;;;;;0.30;0.30;;;22.40;75.60;;;;;;5019935;28;20541;-75
2023/07/29 07:45:27;;;;;;;0.32;0.32;;;22.40;76.10;;;;;;5002211;28;20061;-75
2023/07/29 07:47:53;;;;;;;0.30;0.30;;;22.40;76.00;;;;;;5003666;28;20056;-76
2023/07/29 07:50:19;;;;;;;0.63;0.40;;;22.30;75.80;;;;;;5021307;28;20507;-77
2023/07/29 07:52:44;;;;;;;0.45;0.40;;;22.40;75.50;;;;;;5017906;28;20037;-75
2023/07/29 07:55:10;;;;;;;0.30;0.30;;;22.40;75.60;;;;;;4999675;28;20430;-75
2023/07/29 07:57:36;;;;;;;0.40;0.40;;;22.40;75.30;;;;;;5002761;28;20046;-75
2023/07/29 08:00:01;;;;;;;1.75;0.50;;;22.30;74.90;;;;;;5000564;28;20123;-76
2023/07/29 08:02:27;;;;;;;0.57;0.57;;;22.30;74.50;;;;;;5018615;28;20033;-76
2023/07/29 08:04:52;;;;;;;1.90;0.77;;;22.20;74.50;;;;;;4998669;28;20032;-77
2023/07/29 08:07:18;;;;;;;0.73;0.57;;;22.30;74.20;;;;;;5017916;28;20046;-76
2023/07/29 08:09:44;;;;;;;0.50;0.40;;;22.30;74.00;;;;;;4998559;28;20057;-78
2023/07/29 08:12:09;;;;;;;0.30;0.30;;;22.30;74.40;;;;;;5003631;28;20419;-76
2023/07/29 08:14:35;;;;;;;0.63;0.50;;;22.30;73.40;;;;;;5017438;28;20589;-75
2023/07/29 08:17:01;;;;;;;1.13;0.40;;;22.40;73.10;;;;;;5017786;28;20033;-76
2023/07/29 08:19:27;;;;;;;0.50;0.40;;;22.40;72.80;;;;;;5019153;28;20053;-76
2023/07/29 08:21:52;;;;;;;0.43;0.43;;;22.40;72.40;;;;;;5047353;28;20026;-77
2023/07/29 08:24:18;;;;;;;0.50;0.50;;;22.40;72.90;;;;;;5016064;28;20132;-76
2023/07/29 08:26:44;;;;;;;0.43;0.43;;;22.50;72.20;;;;;;5017135;28;20033;-76
2023/07/29 08:29:09;;;;;;;0.45;0.45;;;22.50;72.10;;;;;;5020412;28;20045;-76
2023/07/29 08:31:35;;;;;;;0.63;0.55;;;22.50;72.50;;;;;;5017929;28;20099;-77
2023/07/29 08:34:00;;;;;;;0.50;0.50;;;22.50;72.10;;;;;;5016619;28;20231;-77
2023/07/29 08:36:26;;;;;;;0.50;0.50;;;22.50;71.80;;;;;;4985158;28;20507;-76
2023/07/29 08:38:52;;;;;;;0.68;0.50;;;22.50;72.00;;;;;;5019058;28;20114;-76
2023/07/29 08:41:40;;;;;;;1.90;0.50;;;22.50;71.80;;;;;;5003798;28;20588;-76
2023/07/29 08:44:17;;;;;;;1.48;0.50;;;22.40;71.60;;;;;;5019578;28;20124;-77
2023/07/29 08:46:43;;;;;;;0.60;0.60;;;22.50;71.70;;;;;;5021926;28;20024;-76
2023/07/29 08:49:09;;;;;;;0.60;0.43;;;22.50;71.80;;;;;;5018150;28;20042;-76
2023/07/29 08:51:34;;;;;;;0.40;0.40;;;22.50;71.50;;;;;;5018049;28;20064;-76
2023/07/29 08:54:00;;;;;;;1.20;0.52;;;22.50;71.60;;;;;;4984129;28;20526;-79
2023/07/29 08:56:26;;;;;;;0.60;0.60;;;22.40;71.60;;;;;;5017792;28;20080;-77
2023/07/29 08:58:52;;;;;;;0.90;0.50;;;22.50;71.80;;;;;;5033029;28;20045;-77
2023/07/29 09:01:18;;;;;;;0.50;0.50;;;22.50;71.80;;;;;;4981852;28;20077;-77
2023/07/29 09:03:43;;;;;;;0.50;0.50;;;22.50;71.60;;;;;;5002470;28;20131;-77
2023/07/29 09:06:09;;;;;;;0.47;0.47;;;22.60;71.70;;;;;;5000598;28;20818;-76
2023/07/29 09:08:35;;;;;;;0.40;0.40;;;22.60;71.50;;;;;;4986135;28;20530;-77
2023/07/29 09:11:01;;;;;;;0.63;0.63;;;22.60;71.40;;;;;;5021810;28;20091;-77
2023/07/29 09:13:26;;;;;;;0.43;0.43;;;22.60;71.20;;;;;;5001083;28;20174;-77
2023/07/29 09:15:56;;;;;;;2.15;0.40;;;22.60;71.90;;;;;;5017777;28;20048;-77
2023/07/29 09:18:22;;;;;;;0.90;0.50;;;22.60;71.30;;;;;;5000007;28;20111;-77
2023/07/29 09:20:48;;;;;;;0.40;0.40;;;22.70;71.10;;;;;;5000157;28;20041;-75
2023/07/29 09:23:13;;;;;;;0.40;0.40;;;22.70;71.10;;;;;;5017521;28;20054;-77
2023/07/29 09:25:39;;;;;;;0.45;0.45;;;22.70;70.00;;;;;;4984283;28;20412;-78
2023/07/29 09:28:15;;;;;;;0.50;0.50;;;22.70;70.20;;;;;;4983417;28;20049;-78
2023/07/29 09:30:42;;;;;;;0.57;0.57;;;22.80;70.10;;;;;;5029890;28;20135;-77
2023/07/29 09:33:08;;;;;;;0.50;0.50;;;22.70;70.20;;;;;;5001096;28;20144;-77
2023/07/29 09:35:35;;;;;;;0.50;0.50;;;22.80;69.40;;;;;;5004310;28;20112;-78
2023/07/29 09:38:02;;;;;;;0.77;0.57;;;22.80;69.50;;;;;;5000655;28;20053;-78
2023/07/29 09:40:27;;;;;;;0.50;0.50;;;22.80;69.90;;;;;;5022551;28;20037;-79
2023/07/29 09:42:54;;;;;;;0.60;0.60;;;22.80;70.10;;;;;;5021969;28;21004;-80
2023/07/29 09:45:26;;;;;;;1.23;0.70;;;22.80;69.60;;;;;;5024860;28;20069;-81
2023/07/29 09:47:52;;;;;;;0.65;0.40;;;22.80;69.40;;;;;;5021430;28;20499;-81
2023/07/29 09:50:18;;;;;;;0.60;0.60;;;22.80;69.60;;;;;;5025581;28;20045;-78
2023/07/29 09:52:44;;;;;;;0.50;0.50;;;22.80;69.20;;;;;;5027326;28;20044;-78
2023/07/29 09:55:13;;;;;;;1.08;0.50;;;22.80;69.00;;;;;;5022167;28;20460;-80
2023/07/29 09:57:42;;;;;;;1.27;0.60;;;22.80;68.90;;;;;;5025486;28;20427;-78
2023/07/29 10:00:13;;;;;;;0.52;0.52;;;22.90;68.80;;;;;;5009583;28;20082;-79
2023/07/29 10:02:42;;;;;;;1.05;0.52;;;22.90;68.80;;;;;;5009405;28;20542;-79
2023/07/29 10:05:08;;;;;;;0.77;0.55;;;22.90;68.60;;;;;;5028012;28;20041;-79
2023/07/29 10:07:38;;;;;;;0.77;0.43;;;22.90;68.80;;;;;;5008120;28;20468;-80
2023/07/29 10:10:07;;;;;;;0.70;0.70;;;22.90;68.80;;;;;;5025630;28;20124;-79
2023/07/29 10:12:33;;;;;;;0.55;0.50;;;23.00;68.70;;;;;;5026706;28;20056;-79
2023/07/29 10:15:01;;;;;;;0.63;0.50;;;23.00;68.80;;;;;;5022116;28;20602;-79
2023/07/29 10:17:26;;;;;;;0.80;0.45;;;23.00;68.70;;;;;;5026765;28;20076;-80
2023/07/29 10:19:52;;;;;;;0.73;0.50;;;23.00;68.90;;;;;;5039447;28;20491;-79
2023/07/29 10:22:20;;;;;;;0.65;0.65;;;23.00;68.80;;;;;;5024759;28;20507;-79
2023/07/29 10:24:45;;;;;;;0.50;0.50;;;23.00;68.60;;;;;;5006577;28;20037;-78
2023/07/29 10:27:11;;;;;;;1.20;0.70;;;23.00;68.60;;;;;;5005460;28;20042;-76
2023/07/29 10:29:38;;;;;;;0.60;0.60;;;23.10;69.60;;;;;;5025264;28;20049;-80
2023/07/29 10:32:05;;;;;;;0.93;0.60;;;23.10;68.90;;;;;;5038191;28;20045;-79
2023/07/29 10:34:31;;;;;;;0.52;0.52;;;23.10;69.00;;;;;;5026208;28;20044;-79
2023/07/29 10:36:57;;;;;;;0.50;0.50;;;23.10;69.10;;;;;;5006039;28;20435;-80
2023/07/29 10:39:24;;;;;;;0.95;0.55;;;23.10;69.10;;;;;;4990100;28;20049;-80
2023/07/29 10:41:58;;;;;;;1.05;0.70;;;23.10;69.00;;;;;;5008070;28;20064;-78
2023/07/29 10:44:50;;;;;;;0.65;0.63;;;23.10;68.50;;;;;;5025372;28;20037;-77
2023/07/29 10:47:23;;;;;;;0.40;0.40;;;23.10;67.90;;;;;;5025668;28;20117;-77
2023/07/29 10:49:54;;;;;;;0.60;0.60;;;23.10;67.20;;;;;;5008473;28;20049;-78
2023/07/29 10:52:35;;;;;;;1.98;0.63;;;23.10;67.10;;;;;;4644088;28;10000264;-77
2023/07/29 10:55:01;;;;;;;1.10;0.73;;;23.10;66.80;;;;;;5019314;28;20117;-77
2023/07/29 10:57:34;;;;;;;1.35;1.00;;;23.10;66.50;;;;;;5020784;28;20056;-78
2023/07/29 10:59:59;;;;;;;1.40;0.80;;;23.10;67.50;;;;;;5018809;28;20049;-78
2023/07/29 11:02:29;;;;;;;1.40;0.68;;;23.20;67.40;;;;;;5019997;28;20112;-77
2023/07/29 11:04:55;;;;;;;0.60;0.50;;;23.10;68.40;;;;;;5047813;28;20073;-78
2023/07/29 11:07:27;;;;;;;0.70;0.70;;;23.20;68.80;;;;;;5019059;28;20535;-78
2023/07/29 11:09:57;;;;;;;1.40;1.10;;;23.20;68.50;;;;;;5020973;28;20041;-78
2023/07/29 11:12:42;;;;;;;1.17;1.10;;;23.20;67.10;;;;;;4985770;28;20123;-79
2023/07/29 11:15:13;;;;;;;3.58;2.28;;;23.30;67.10;;;;;;5019072;28;20045;-78
2023/07/29 11:17:50;;;;;;;48.67;15.70;;;23.30;66.60;;;;;;5023312;28;20049;-79
2023/07/29 11:20:16;;;;;;;30.67;13.38;;;23.30;67.80;;;;;;5026153;28;20037;-78
2023/07/29 11:22:42;;;;;;;20.27;7.93;;;23.30;67.10;;;;;;5006550;28;20119;-78
2023/07/29 11:25:11;;;;;;;11.65;5.20;;;23.40;66.90;;;;;;5005817;28;20512;-79
2023/07/29 11:27:37;;;;;;;7.70;3.75;;;23.40;66.80;;;;;;4993464;28;20518;-79
2023/07/29 11:30:08;;;;;;;4.95;3.00;;;23.40;65.70;;;;;;5022971;28;20443;-79
2023/07/29 11:32:34;;;;;;;4.72;2.65;;;23.30;65.80;;;;;;4674133;28;10000264;-79
2023/07/29 11:35:07;;;;;;;2.97;1.75;;;23.30;65.80;;;;;;5004017;28;20045;-79
2023/07/29 11:37:34;;;;;;;3.63;1.77;;;23.40;65.90;;;;;;5022677;28;20053;-79
2023/07/29 11:39:59;;;;;;;2.72;1.63;;;23.40;65.40;;;;;;5003377;28;20142;-81
2023/07/29 11:42:25;;;;;;;1.45;1.27;;;23.40;65.30;;;;;;5020755;28;20103;-81
2023/07/29 11:44:51;;;;;;;1.65;1.02;;;23.40;64.60;;;;;;5022254;28;20049;-80
2023/07/29 11:47:17;;;;;;;10.10;1.65;;;23.30;64.90;;;;;;5021880;28;20064;-82
2023/07/29 11:49:42;;;;;;;2.53;1.40;;;23.30;65.10;;;;;;5020118;28;20064;-81
2023/07/29 11:52:08;;;;;;;2.30;1.40;;;23.30;64.80;;;;;;5014519;28;20530;-81
2023/07/29 11:54:38;;;;;;;2.55;1.10;;;23.20;65.00;;;;;;4987966;28;20127;-82
2023/07/29 11:57:07;;;;;;;0.80;0.80;;;23.30;64.50;;;;;;5020351;28;20046;-81
2023/07/29 11:59:34;;;;;;;1.05;0.77;;;23.30;64.50;;;;;;5021483;28;20049;-81
2023/07/29 12:02:01;;;;;;;1.55;0.80;;;23.30;64.90;;;;;;5022258;28;20507;-82
2023/07/29 12:04:27;;;;;;;1.58;0.85;;;23.30;64.80;;;;;;5020439;28;20056;-81
2023/07/29 12:06:52;;;;;;;0.90;0.90;;;23.30;65.50;;;;;;5019302;28;20042;-81
2023/07/29 12:09:18;;;;;;;1.20;0.90;;;23.40;65.20;;;;;;5021154;28;20185;-81
2023/07/29 12:11:43;;;;;;;0.98;0.60;;;23.30;65.00;;;;;;5005721;28;20054;-81
2023/07/29 12:14:09;;;;;;;0.95;0.80;;;23.40;65.30;;;;;;5005190;28;20836;-82
2023/07/29 12:16:44;;;;;;;0.73;0.60;;;23.30;64.80;;;;;;5018473;28;20042;-82
2023/07/29 12:19:13;;;;;;;0.95;0.80;;;23.30;64.60;;;;;;5020524;28;20140;-81
2023/07/29 12:21:41;;;;;;;0.73;0.73;;;23.30;64.40;;;;;;5019819;28;20530;-81
2023/07/29 12:24:06;;;;;;;0.68;0.60;;;23.40;64.30;;;;;;5020701;28;20053;-81
2023/07/29 12:26:32;;;;;;;0.95;0.68;;;23.30;64.60;;;;;;5021602;28;20058;-81
2023/07/29 12:28:57;;;;;;;1.10;0.77;;;23.30;65.10;;;;;;5023513;28;20049;-81
2023/07/29 12:31:31;;;;;;;0.93;0.85;;;23.30;65.30;;;;;;5019335;28;20140;-80
2023/07/29 12:33:57;;;;;;;;;;;23.30;65.70;;;;;;5015897;28;20049;-79
2023/07/29 12:36:26;;;;;;;1.58;0.80;;;23.40;65.40;;;;;;5017198;28;19925;-81
2023/07/29 12:38:52;;;;;;;0.63;0.47;;;23.40;65.10;;;;;;4999609;28;20646;-82
2023/07/29 12:41:18;;;;;;;1.08;1.00;;;23.40;65.50;;;;;;5020206;28;20049;-83
2023/07/29 12:43:43;;;;;;;0.70;0.70;;;23.40;65.00;;;;;;5020385;28;20037;-86